map of BHJ home
BHJ - Airport
Location
City:  Bhuj, Gujarat, India
ICAO:VABJ
IATA:BHJ

Details
Type:Airport (Aerodrome, Airfield)
Use:Public/Civil, Military
Latitude:2317'16"N (23.287828)
Longitude:6940'13"E (69.670147)
Datum:WGS 1984
Elevation:268 ft (82 m)
Variation:0.69E (WMM2015v2 magnetic declination)
0.05 annual change
Runways:1
Longest:8205 × 150 ft (2501 × 45.5 m), paved

Time
Time Zone:UTC+5:30
Local Time:

Weather
TAF:VABJ 040930Z 0412/0424 03005KT 6000 BKN250
BECMG 0414/0415 VRB02KT

Related Locations
Nearby:
Farthest:IPC: 12158 mi / 19566 km
Easter Island (Isla de Pascua, Rapa Nui) [Mataveri Intl], VS, CL

Find:

   beyond  
but within

Other Information
Maps:
NOTAMs:
Links:
Sources:

  
  • flag of India
  

Sectional Chart

Flight Planning
at skyvector.com

Satellite Image

Google Maps Satellite view

 

Copyright © 2004-2019 Karl L. Swartz. All rights reserved.
The Great Circle Mapper name and logo are trademarks of the Great Circle Mapper.
All other trademarks mentioned herein belong to their respective owners.
Please see credits for attibutions and further copyright information.

  Follow gcmap on Facebook Follow gcmap on Twitter GCmap on LinkedIn

hCard Microformat

Geo Microformat